createdAt,value
2019-03-11T00:01:45.704Z,98999.34
2019-03-11T00:04:15.845Z,98996.34
2019-03-11T00:06:45.751Z,98989.57
2019-03-11T00:09:16.881Z,98988.16
2019-03-11T00:11:48.320Z,98982.93
2019-03-11T00:14:18.623Z,98990.08
2019-03-11T00:16:47.787Z,98976.86
2019-03-11T00:19:18.084Z,98978.05
2019-03-11T00:21:47.778Z,98972.48
2019-03-11T00:24:18.228Z,98976.59
2019-03-11T00:26:47.656Z,98972.94
2019-03-11T00:29:16.855Z,98970.44
2019-03-11T00:31:46.332Z,98981.68
2019-03-11T00:34:16.875Z,98978.20
2019-03-11T00:36:47.099Z,98974.98
2019-03-11T00:39:16.303Z,98981.33
2019-03-11T00:41:46.289Z,98969.86
2019-03-11T00:44:15.789Z,98976.92
2019-03-11T00:46:46.722Z,98983.13
2019-03-11T00:49:16.504Z,98975.75
2019-03-11T00:51:47.655Z,98981.43
2019-03-11T00:54:16.845Z,98973.20
2019-03-11T00:56:46.036Z,98973.02
2019-03-11T00:59:15.491Z,98972.44
2019-03-11T01:01:45.215Z,98959.52
2019-03-11T01:04:15.451Z,98959.20
2019-03-11T01:06:44.950Z,98950.20
2019-03-11T01:09:14.425Z,98946.36
2019-03-11T01:11:43.910Z,98949.43
2019-03-11T01:14:14.964Z,98945.62
2019-03-11T01:16:46.692Z,98939.29
2019-03-11T01:19:16.985Z,98936.77
2019-03-11T01:21:46.141Z,98918.67
2019-03-11T01:24:15.583Z,98918.36
2019-03-11T01:26:45.317Z,98912.45
2019-03-11T01:29:14.796Z,98911.91
2019-03-11T01:31:44.485Z,98903.55
2019-03-11T01:34:13.939Z,98897.67
2019-03-11T01:36:43.095Z,98889.55
2019-03-11T01:39:14.315Z,98883.27
2019-03-11T01:41:44.316Z,98880.92
2019-03-11T01:44:14.993Z,98880.25
2019-03-11T01:46:44.163Z,98876.94
2019-03-11T01:49:13.847Z,98867.95
2019-03-11T01:51:43.520Z,98857.73
2019-03-11T01:54:12.779Z,98869.22
2019-03-11T01:56:42.567Z,98856.66
2019-03-11T01:59:12.051Z,98838.20
2019-03-11T02:01:43.097Z,98839.38
2019-03-11T02:04:13.326Z,98835.94
2019-03-11T02:06:44.342Z,98836.23
2019-03-11T02:09:13.940Z,98827.92
2019-03-11T02:11:43.580Z,98818.02
2019-03-11T02:14:13.561Z,98796.34
2019-03-11T02:16:42.752Z,98795.89
2019-03-11T02:19:12.673Z,98800.26
2019-03-11T02:21:41.849Z,98801.17
2019-03-11T02:24:13.313Z,98793.72
2019-03-11T02:26:42.521Z,98786.76
2019-03-11T02:29:11.680Z,98799.62
2019-03-11T02:31:41.171Z,98797.59
2019-03-11T02:34:12.119Z,98810.39
2019-03-11T02:36:41.945Z,98795.91
2019-03-11T02:39:11.583Z,98823.11
2019-03-11T02:41:42.192Z,98830.09
2019-03-11T02:44:11.721Z,98836.28
2019-03-11T02:46:40.950Z,98797.63
2019-03-11T02:49:10.582Z,98819.45
2019-03-11T02:51:40.034Z,98805.66
2019-03-11T02:54:09.230Z,98810.31
2019-03-11T02:56:40.492Z,98806.39
2019-03-11T02:59:09.645Z,98818.86
2019-03-11T03:02:14.586Z,98821.47
2019-03-11T03:04:47.607Z,98831.20
2019-03-11T03:07:17.064Z,98826.09
2019-03-11T03:09:47.018Z,98829.42
2019-03-11T03:12:16.551Z,98819.90
2019-03-11T03:14:46.047Z,98812.47
2019-03-11T03:17:15.257Z,98802.02
2019-03-11T03:19:44.790Z,98797.95
2019-03-11T03:22:15.734Z,98807.88
2019-03-11T03:24:44.916Z,98802.59
2019-03-11T03:27:14.088Z,98804.23
2019-03-11T03:29:43.231Z,98803.01
2019-03-11T03:32:12.787Z,98797.64
2019-03-11T03:34:42.078Z,98794.45
2019-03-11T03:37:11.204Z,98817.11
2019-03-11T03:39:41.846Z,98803.20
2019-03-11T03:42:13.539Z,98805.08
2019-03-11T03:45:02.631Z,98804.28
2019-03-11T03:47:31.814Z,98806.53
2019-03-11T03:50:01.349Z,98804.28
2019-03-11T03:52:30.519Z,98798.23
2019-03-11T03:55:00.039Z,98815.52
2019-03-11T03:57:29.496Z,98823.42
2019-03-11T03:59:58.961Z,98829.88
2019-03-11T04:02:28.174Z,98825.25
2019-03-11T04:04:57.708Z,98822.69
2019-03-11T04:07:28.788Z,98830.98
2019-03-11T04:09:58.005Z,98836.65
2019-03-11T04:12:27.230Z,98827.73
2019-03-11T04:14:56.448Z,98811.22
2019-03-11T04:17:25.956Z,98823.78
2019-03-11T04:19:55.448Z,98820.44
2019-03-11T04:22:24.613Z,98842.15
2019-03-11T04:24:53.820Z,98841.28
2019-03-11T04:27:23.571Z,98841.39
2019-03-11T04:29:53.037Z,98827.37
2019-03-11T04:32:22.980Z,98823.71
2019-03-11T04:34:52.170Z,98807.66
2019-03-11T04:37:21.883Z,98813.25
2019-03-11T04:39:51.856Z,98801.08
2019-03-11T04:42:21.769Z,98792.16
2019-03-11T04:44:52.296Z,98794.42
2019-03-11T04:47:21.452Z,98797.48
2019-03-11T04:49:50.640Z,98794.31
2019-03-11T04:52:20.094Z,98787.64
2019-03-11T04:54:49.280Z,98785.17
2019-03-11T04:57:18.574Z,98788.75
2019-03-11T04:59:49.601Z,98776.75
2019-03-11T05:02:19.627Z,98779.05
2019-03-11T05:04:49.128Z,98789.23
2019-03-11T05:07:18.582Z,98795.22
2019-03-11T05:09:47.746Z,98807.95
2019-03-11T05:12:16.955Z,98805.71
2019-03-11T05:14:46.457Z,98816.15
2019-03-11T05:17:15.655Z,98824.27
2019-03-11T05:19:46.198Z,98817.01
2019-03-11T05:22:15.939Z,98816.10
2019-03-11T05:24:45.888Z,98830.91
2019-03-11T05:27:15.431Z,98828.59
2019-03-11T05:29:44.592Z,98828.88
2019-03-11T05:32:13.795Z,98840.48
2019-03-11T05:34:44.830Z,98827.57
2019-03-11T05:37:15.133Z,98830.58
2019-03-11T05:39:44.353Z,98848.72
2019-03-11T05:42:13.813Z,98855.25
2019-03-11T05:44:43.273Z,98851.90
2019-03-11T05:47:13.027Z,98847.20
2019-03-11T05:49:45.111Z,98840.57
2019-03-11T05:52:16.309Z,98849.17
2019-03-11T05:54:51.167Z,98852.28
2019-03-11T05:57:21.570Z,98856.39
2019-03-11T05:59:50.816Z,98865.28
2019-03-11T06:02:21.109Z,98870.27
2019-03-11T06:04:56.554Z,98867.66
2019-03-11T06:07:27.045Z,98863.01
2019-03-11T06:09:57.090Z,98864.82
2019-03-11T06:12:26.299Z,98845.70
2019-03-11T06:14:57.111Z,98848.16
2019-03-11T06:17:26.738Z,98860.58
2019-03-11T06:20:10.865Z,98861.14
2019-03-11T06:22:41.250Z,98869.08
2019-03-11T06:25:11.598Z,98874.80
2019-03-11T06:27:45.411Z,98885.98
2019-03-11T06:30:15.312Z,98885.53
2019-03-11T06:32:44.489Z,98895.05
2019-03-11T06:35:13.601Z,98878.83
2019-03-11T06:37:43.191Z,98890.67
2019-03-11T06:40:12.997Z,98891.49
2019-03-11T06:42:43.010Z,98896.84
2019-03-11T06:45:13.388Z,98890.38
2019-03-11T06:47:42.592Z,98893.45
2019-03-11T06:50:12.618Z,98887.63
2019-03-11T06:52:42.092Z,98888.20
2019-03-11T06:55:14.091Z,98880.61
2019-03-11T06:57:44.563Z,98890.64
2019-03-11T07:00:14.923Z,98887.81
2019-03-11T07:02:44.361Z,98899.95
2019-03-11T07:05:20.327Z,98901.00
2019-03-11T07:07:48.082Z,98900.55
2019-03-11T07:10:17.748Z,98894.26
2019-03-11T07:12:48.821Z,98908.70
2019-03-11T07:15:20.780Z,98902.25
2019-03-11T07:17:53.295Z,98906.52
2019-03-11T07:20:31.125Z,98916.09
2019-03-11T07:23:05.408Z,98920.23
2019-03-11T07:25:38.463Z,98921.42
2019-03-11T07:28:08.848Z,98926.83
2019-03-11T07:30:39.323Z,98931.08
2019-03-11T07:33:12.698Z,98930.50
2019-03-11T07:35:42.215Z,98934.64
2019-03-11T07:38:11.678Z,98944.31
2019-03-11T07:40:41.891Z,98942.36
2019-03-11T07:43:11.368Z,98938.90
2019-03-11T07:45:40.836Z,98931.59
2019-03-11T07:48:10.827Z,98940.33
2019-03-11T07:50:40.918Z,98939.13
2019-03-11T07:53:10.403Z,98944.00
2019-03-11T07:55:41.349Z,98945.89
2019-03-11T07:58:10.636Z,98939.31
2019-03-11T08:00:39.887Z,98944.97
2019-03-11T08:03:10.533Z,98944.31
2019-03-11T08:05:43.912Z,98956.67
2019-03-11T08:08:13.711Z,98950.47
2019-03-11T08:10:42.873Z,98957.17
2019-03-11T08:13:12.335Z,98960.98
2019-03-11T08:15:43.734Z,98958.92
2019-03-11T08:18:22.700Z,98960.97
2019-03-11T08:20:52.960Z,98974.37
2019-03-11T08:23:23.872Z,98964.22
2019-03-11T08:25:55.843Z,98978.74
2019-03-11T08:28:25.935Z,98979.06
2019-03-11T08:30:55.128Z,98976.30
2019-03-11T08:33:38.375Z,98985.83
2019-03-11T08:36:11.684Z,98982.38
2019-03-11T08:38:41.828Z,98982.53
2019-03-11T08:41:11.254Z,98981.33
2019-03-11T08:43:43.591Z,98990.92
2019-03-11T08:46:13.007Z,98990.52
2019-03-11T08:48:43.238Z,98979.30
2019-03-11T08:51:14.459Z,98978.83
2019-03-11T08:53:43.700Z,98995.70
2019-03-11T08:56:13.665Z,98996.63
2019-03-11T08:58:45.068Z,98997.45
2019-03-11T09:01:14.497Z,98989.75
2019-03-11T09:03:46.933Z,98991.41
2019-03-11T09:06:17.436Z,98994.13
2019-03-11T09:08:46.933Z,98992.89
2019-03-11T09:11:16.746Z,98995.21
2019-03-11T09:13:47.321Z,98994.73
2019-03-11T09:16:17.122Z,98990.08
2019-03-11T09:18:46.467Z,98992.63
2019-03-11T09:21:18.745Z,98994.34
2019-03-11T09:23:50.710Z,99003.92
2019-03-11T09:26:19.883Z,98996.38
2019-03-11T09:28:49.073Z,99001.29
2019-03-11T09:31:18.501Z,99001.16
2019-03-11T09:33:47.688Z,98985.78
2019-03-11T09:36:19.769Z,99003.98
2019-03-11T09:38:50.246Z,99005.66
2019-03-11T09:41:20.253Z,98996.11
2019-03-11T09:44:05.117Z,98994.55
2019-03-11T09:46:34.423Z,98994.73
2019-03-11T09:49:13.871Z,99011.41
2019-03-11T09:51:44.228Z,99006.98
2019-03-11T09:54:15.247Z,99004.28
2019-03-11T09:56:46.533Z,99003.92
2019-03-11T09:59:15.708Z,99005.87
2019-03-11T10:01:59.178Z,99009.13
2019-03-11T10:04:28.407Z,99006.16
2019-03-11T10:06:57.669Z,99024.96
2019-03-11T10:09:30.922Z,99018.41
2019-03-11T10:12:00.404Z,99017.44
2019-03-11T10:14:29.914Z,99016.70
2019-03-11T10:17:00.411Z,99015.58
2019-03-11T10:19:33.340Z,99021.91
2019-03-11T10:22:02.534Z,99025.56
2019-03-11T10:24:32.543Z,99033.40
2019-03-11T10:27:09.211Z,99039.42
2019-03-11T10:29:38.448Z,99035.17
2019-03-11T10:32:08.577Z,99039.04
2019-03-11T10:34:38.252Z,99042.88
2019-03-11T10:37:07.456Z,99039.02
2019-03-11T10:39:39.226Z,99037.19
2019-03-11T10:42:08.425Z,99042.70
2019-03-11T10:44:37.937Z,99047.39
2019-03-11T10:47:07.471Z,99049.36
2019-03-11T10:49:39.386Z,99046.28
2019-03-11T10:52:15.385Z,99041.06
2019-03-11T10:54:51.184Z,99048.95
2019-03-11T10:57:21.840Z,99050.76
2019-03-11T10:59:51.898Z,99042.83
2019-03-11T11:02:24.016Z,99050.34
2019-03-11T11:04:54.366Z,99050.76
2019-03-11T11:07:24.356Z,99052.58
2019-03-11T11:09:55.260Z,99056.51
2019-03-11T11:12:24.875Z,99074.03
2019-03-11T11:14:55.392Z,99064.07
2019-03-11T11:17:24.848Z,99070.20
2019-03-11T11:20:02.907Z,99071.81
2019-03-11T11:22:25.898Z,99089.83
2019-03-11T11:24:56.460Z,99085.16
2019-03-11T11:27:26.481Z,99092.38
2019-03-11T11:29:55.952Z,99098.67
2019-03-11T11:32:28.482Z,99102.80
2019-03-11T11:35:00.393Z,99100.08
2019-03-11T11:37:29.574Z,99086.32
2019-03-11T11:39:59.145Z,99090.06
2019-03-11T11:42:28.602Z,99104.17
2019-03-11T11:44:58.541Z,99108.94
2019-03-11T11:47:32.656Z,99105.86
2019-03-11T11:50:07.749Z,99108.94
2019-03-11T11:52:40.106Z,99113.30
2019-03-11T11:55:09.470Z,99111.23
2019-03-11T11:57:38.902Z,99117.81
2019-03-11T12:00:12.894Z,99111.70
2019-03-11T12:02:44.246Z,99111.13
2019-03-11T12:05:14.825Z,99104.44
2019-03-11T12:07:44.324Z,99106.92
2019-03-11T12:10:15.285Z,99106.75
2019-03-11T12:12:45.304Z,99115.15
2019-03-11T12:15:15.041Z,99124.83
2019-03-11T12:17:44.466Z,99120.53
2019-03-11T12:20:17.405Z,99126.80
2019-03-11T12:22:46.576Z,99125.09
2019-03-11T12:25:17.062Z,99132.01
2019-03-11T12:27:53.721Z,99124.95
2019-03-11T12:30:22.360Z,99130.03
2019-03-11T12:32:52.806Z,99128.12
2019-03-11T12:35:22.006Z,99133.95
2019-03-11T12:37:51.678Z,99136.56
2019-03-11T12:40:20.967Z,99138.71
2019-03-11T12:42:51.081Z,99131.59
2019-03-11T12:45:22.421Z,99133.45
2019-03-11T12:47:52.881Z,99131.30
2019-03-11T12:50:27.203Z,99137.50
2019-03-11T12:52:58.980Z,99147.25
2019-03-11T12:55:28.439Z,99134.25
2019-03-11T12:57:58.665Z,99133.49
2019-03-11T13:00:32.127Z,99128.45
2019-03-11T13:03:01.848Z,99131.44
2019-03-11T13:05:31.016Z,99126.70
2019-03-11T13:08:01.595Z,99153.72
2019-03-11T13:10:44.741Z,99134.37
2019-03-11T13:13:22.097Z,99145.13
2019-03-11T13:15:52.308Z,99160.66
2019-03-11T13:18:40.671Z,99142.77
2019-03-11T13:21:33.609Z,99133.55
2019-03-11T13:24:04.546Z,99151.07
2019-03-11T13:26:37.987Z,99136.77
2019-03-11T13:29:10.478Z,99145.28
2019-03-11T13:31:39.730Z,99142.75
2019-03-11T13:34:08.905Z,99135.94
2019-03-11T13:36:39.001Z,99149.77
2019-03-11T13:39:10.006Z,99143.85
2019-03-11T13:41:39.543Z,99148.27
2019-03-11T13:44:08.705Z,99155.27
2019-03-11T13:46:37.864Z,99150.34
2019-03-11T13:49:07.852Z,99154.61
2019-03-11T13:51:37.041Z,99155.77
2019-03-11T13:54:10.374Z,99164.86
2019-03-11T13:56:42.916Z,99170.59
2019-03-11T13:59:12.437Z,99167.47
2019-03-11T14:01:41.592Z,99163.92
2019-03-11T14:04:11.451Z,99163.36
2019-03-11T14:06:41.619Z,99163.44
2019-03-11T14:09:11.103Z,99160.31
2019-03-11T14:11:40.377Z,99168.95
2019-03-11T14:14:11.393Z,99171.36
2019-03-11T14:16:40.875Z,99171.27
2019-03-11T14:19:10.558Z,99185.99
2019-03-11T14:21:40.564Z,99162.36
2019-03-11T14:24:13.309Z,99153.30
2019-03-11T14:26:42.738Z,99164.13
2019-03-11T14:29:12.805Z,99160.11
2019-03-11T14:31:42.776Z,99164.52
2019-03-11T14:34:11.965Z,99169.20
2019-03-11T14:36:41.209Z,99166.97
2019-03-11T14:39:12.473Z,99178.99
2019-03-11T14:41:41.658Z,99175.53
2019-03-11T14:44:10.837Z,99180.96
2019-03-11T14:46:40.433Z,99186.79
2019-03-11T14:49:09.743Z,99171.02
2019-03-11T14:51:38.998Z,99189.64
2019-03-11T14:54:08.175Z,99193.33
2019-03-11T14:56:37.905Z,99176.84
2019-03-11T14:59:07.448Z,99180.19
2019-03-11T15:01:38.098Z,99192.95
2019-03-11T15:04:07.356Z,99205.52
2019-03-11T15:06:36.527Z,99198.03
2019-03-11T15:09:08.209Z,99191.36
2019-03-11T15:11:38.830Z,99194.02
2019-03-11T15:14:08.860Z,99192.00
2019-03-11T15:16:40.321Z,99187.33
2019-03-11T15:19:09.468Z,99200.34
2019-03-11T15:21:39.003Z,99204.50
2019-03-11T15:24:09.082Z,99196.25
2019-03-11T15:26:38.381Z,99199.88
2019-03-11T15:29:08.187Z,99219.72
2019-03-11T15:31:37.870Z,99206.59
2019-03-11T15:34:07.076Z,99215.22
2019-03-11T15:36:36.297Z,99207.65
2019-03-11T15:39:06.410Z,99208.50
2019-03-11T15:41:37.315Z,99213.22
2019-03-11T15:44:06.505Z,99222.89
2019-03-11T15:46:39.524Z,99214.41
2019-03-11T15:49:07.453Z,99204.75
2019-03-11T15:51:37.241Z,99225.66
2019-03-11T15:54:06.465Z,99213.51
2019-03-11T15:56:35.661Z,99211.62
2019-03-11T15:59:04.828Z,99232.89
2019-03-11T16:01:34.003Z,99228.41
2019-03-11T16:04:03.857Z,99228.95
2019-03-11T16:06:33.039Z,99217.11
2019-03-11T16:09:02.310Z,99220.98
2019-03-11T16:11:31.936Z,99217.85
2019-03-11T16:14:01.423Z,99229.73
2019-03-11T16:16:32.284Z,99217.85
2019-03-11T16:19:01.871Z,99234.81
2019-03-11T16:21:34.407Z,99218.98
2019-03-11T16:24:04.027Z,99229.41
2019-03-11T16:26:35.121Z,99238.30
2019-03-11T16:29:04.709Z,99242.09
2019-03-11T16:31:34.497Z,99236.05
2019-03-11T16:34:04.568Z,99235.28
2019-03-11T16:36:35.103Z,99218.13
2019-03-11T16:39:06.933Z,99236.07
2019-03-11T16:41:37.728Z,99222.47
2019-03-11T16:44:06.917Z,99227.80
2019-03-11T16:46:38.018Z,99234.91
2019-03-11T16:49:07.201Z,99235.14
2019-03-11T16:51:37.350Z,99230.81
2019-03-11T16:54:06.776Z,99241.11
2019-03-11T16:56:36.984Z,99242.12
2019-03-11T16:59:06.169Z,99251.88
2019-03-11T17:01:35.749Z,99258.45
2019-03-11T17:04:04.977Z,99260.48
2019-03-11T17:06:34.173Z,99255.44
2019-03-11T17:09:03.903Z,99255.99
2019-03-11T17:11:33.638Z,99272.34
2019-03-11T17:14:03.333Z,99280.08
2019-03-11T17:16:32.533Z,99309.42
2019-03-11T17:19:04.395Z,99294.97
2019-03-11T17:21:33.718Z,99298.66
2019-03-11T17:24:02.886Z,99311.98
2019-03-11T17:26:33.241Z,99307.92
2019-03-11T17:29:07.536Z,99323.41
2019-03-11T17:31:36.763Z,99329.78
2019-03-11T17:34:05.952Z,99334.73
2019-03-11T17:36:35.125Z,99340.84
2019-03-11T17:39:05.028Z,99349.44
2019-03-11T17:41:34.213Z,99349.00
2019-03-11T17:44:03.378Z,99365.16
2019-03-11T17:46:32.870Z,99355.97
2019-03-11T17:49:02.067Z,99359.12
2019-03-11T17:51:34.694Z,99357.31
2019-03-11T17:54:03.848Z,99353.23
2019-03-11T17:56:33.040Z,99360.46
2019-03-11T17:59:02.182Z,99362.56
2019-03-11T18:01:31.382Z,99364.52
2019-03-11T18:04:00.541Z,99363.84
2019-03-11T18:06:29.985Z,99363.39
2019-03-11T18:08:59.657Z,99377.70
2019-03-11T18:11:29.704Z,99362.92
2019-03-11T18:13:59.196Z,99382.47
2019-03-11T18:16:28.792Z,99396.56
2019-03-11T18:18:58.580Z,99369.56
2019-03-11T18:21:27.801Z,99397.30
2019-03-11T18:23:59.034Z,99392.30
2019-03-11T18:26:28.317Z,99426.24
2019-03-11T18:28:57.757Z,99411.99
2019-03-11T18:31:29.882Z,99436.28
2019-03-11T18:33:59.656Z,99429.86
2019-03-11T18:36:29.367Z,99432.66
2019-03-11T18:38:59.122Z,99437.70
2019-03-11T18:41:30.843Z,99437.37
2019-03-11T18:44:01.084Z,99442.75
2019-03-11T18:46:32.234Z,99453.16
2019-03-11T18:49:05.051Z,99446.34
2019-03-11T18:51:33.698Z,99454.78
2019-03-11T18:54:03.722Z,99442.27
2019-03-11T18:56:35.269Z,99451.96
2019-03-11T18:59:04.538Z,99458.17
2019-03-11T19:01:35.088Z,99474.55
2019-03-11T19:04:05.048Z,99468.56
2019-03-11T19:06:34.914Z,99481.80
2019-03-11T19:09:09.005Z,99463.70
2019-03-11T19:11:38.918Z,99473.25
2019-03-11T19:14:10.357Z,99469.39
2019-03-11T19:16:40.650Z,99472.39
2019-03-11T19:19:12.083Z,99472.93
2019-03-11T19:21:42.483Z,99474.70
2019-03-11T19:24:14.082Z,99477.64
2019-03-11T19:26:47.244Z,99485.09
2019-03-11T19:29:20.591Z,99468.09
2019-03-11T19:31:50.812Z,99485.39
2019-03-11T19:34:21.794Z,99487.73
2019-03-11T19:36:55.059Z,99505.39
2019-03-11T19:39:24.948Z,99478.35
2019-03-11T19:41:54.345Z,99490.25
2019-03-11T19:44:25.127Z,99500.27
2019-03-11T19:46:54.304Z,99496.80
2019-03-11T19:49:23.852Z,99508.13
2019-03-11T19:51:56.458Z,99509.34
2019-03-11T19:54:29.112Z,99519.34
2019-03-11T19:57:01.815Z,99517.17
2019-03-11T19:59:31.066Z,99525.62
2019-03-11T20:02:03.472Z,99540.70
2019-03-11T20:04:34.002Z,99549.37
2019-03-11T20:07:03.286Z,99551.98
2019-03-11T20:09:34.485Z,99557.86
2019-03-11T20:12:24.158Z,99556.67
2019-03-11T20:14:53.662Z,99559.87
2019-03-11T20:17:23.727Z,99575.47
2019-03-11T20:19:53.207Z,99580.71
2019-03-11T20:22:22.683Z,99578.49
2019-03-11T20:24:52.748Z,99582.02
2019-03-11T20:27:22.143Z,99582.60
2019-03-11T20:29:51.358Z,99573.58
2019-03-11T20:32:20.758Z,99585.42
2019-03-11T20:34:50.090Z,99589.03
2019-03-11T20:37:20.730Z,99603.03
2019-03-11T20:39:50.379Z,99589.94
2019-03-11T20:42:23.174Z,99606.11
2019-03-11T20:44:52.492Z,99616.19
2019-03-11T20:47:22.128Z,99601.02
2019-03-11T20:49:51.876Z,99612.83
2019-03-11T20:52:23.106Z,99605.13
2019-03-11T20:54:53.507Z,99607.73
2019-03-11T20:57:23.579Z,99613.59
2019-03-11T20:59:53.058Z,99635.41
2019-03-11T21:02:22.337Z,99638.44
2019-03-11T21:04:51.977Z,99636.67
2019-03-11T21:07:21.819Z,99648.16
2019-03-11T21:09:53.625Z,99653.03
2019-03-11T21:12:23.025Z,99651.68
2019-03-11T21:14:52.465Z,99667.64
2019-03-11T21:17:26.992Z,99675.86
2019-03-11T21:19:55.869Z,99679.28
2019-03-11T21:22:25.448Z,99681.70
2019-03-11T21:24:59.832Z,99684.17
2019-03-11T21:27:27.569Z,99687.64
2019-03-11T21:30:00.705Z,99702.90
2019-03-11T21:32:30.122Z,99696.30
2019-03-11T21:35:02.004Z,99714.05
2019-03-11T21:37:35.204Z,99713.23
2019-03-11T21:40:04.842Z,99715.45
2019-03-11T21:42:37.525Z,99720.13
2019-03-11T21:45:05.626Z,99714.73
2019-03-11T21:47:36.543Z,99713.03
2019-03-11T21:50:06.190Z,99723.81
2019-03-11T21:52:35.445Z,99722.10
2019-03-11T21:55:05.746Z,99724.77
2019-03-11T21:57:38.050Z,99717.27
2019-03-11T22:00:08.146Z,99714.29
2019-03-11T22:02:37.806Z,99716.81
2019-03-11T22:05:07.491Z,99717.22
2019-03-11T22:07:37.604Z,99705.47
2019-03-11T22:10:07.337Z,99716.86
2019-03-11T22:12:36.500Z,99717.72
2019-03-11T22:15:06.085Z,99718.27
2019-03-11T22:17:35.802Z,99719.44
2019-03-11T22:20:06.369Z,99713.33
2019-03-11T22:22:36.228Z,99712.57
2019-03-11T22:25:11.934Z,99715.55
2019-03-11T22:27:41.239Z,99718.10
2019-03-11T22:30:15.529Z,99712.63
2019-03-11T22:32:45.499Z,99716.45
2019-03-11T22:35:15.584Z,99719.98
2019-03-11T22:37:44.815Z,99719.17
2019-03-11T22:40:14.231Z,99722.25
2019-03-11T22:42:43.895Z,99724.92
2019-03-11T22:45:16.734Z,99728.46
2019-03-11T22:47:44.522Z,99734.61
2019-03-11T22:50:13.838Z,99735.11
2019-03-11T22:52:43.243Z,99744.44
2019-03-11T22:55:14.693Z,99746.30
2019-03-11T22:57:44.898Z,99757.78
2019-03-11T23:00:26.672Z,99760.46
2019-03-11T23:02:56.285Z,99760.91
2019-03-11T23:05:26.516Z,99762.47
2019-03-11T23:07:57.175Z,99770.69
2019-03-11T23:10:26.730Z,99775.88
2019-03-11T23:12:55.963Z,99780.48
2019-03-11T23:15:25.478Z,99778.71
2019-03-11T23:17:54.652Z,99782.59
2019-03-11T23:20:23.862Z,99791.77
2019-03-11T23:22:54.965Z,99789.45
2019-03-11T23:25:24.187Z,99789.90
2019-03-11T23:27:53.429Z,99788.09
2019-03-11T23:30:22.777Z,99793.53
2019-03-11T23:32:51.962Z,99797.31
2019-03-11T23:35:21.613Z,99792.97
2019-03-11T23:37:50.858Z,99783.45
2019-03-11T23:40:20.531Z,99794.33
2019-03-11T23:42:50.090Z,99795.70
2019-03-11T23:45:19.504Z,99792.20
2019-03-11T23:47:48.780Z,99793.94
2019-03-11T23:50:25.405Z,99794.08
2019-03-11T23:52:54.604Z,99788.75
2019-03-11T23:55:23.762Z,99790.24
2019-03-11T23:57:52.954Z,99794.58
